UAE46 EDDF-OMDB
Flight info
| Callsign | UAE46 |
|---|---|
| Flight time | N/A |
| Altitude | 37000 |
| Route | CINDY8S CINDY Z74 LAMPU DCT NOMBO Y161 MAH DCT LATLO DCT OBEDI DCT BABOL DCT NISVA DCT USALI DCT OTKOK DCT RODIP DCT BELGI DCT KETEK UT38 VESAR L620 BAPAX/N0484F390 L620 BALMA UR655 LEBOR R655 KTN R785 RASLI P559 TRF R23 NEVOL N318 TAMRO T503 KSA M321 RESAL T533 RAPMA DCT KUVSO DCT KATIT DCT PEKEM M628 RIGIL G783 ELUDA/N0466F350 G783 ASPED Q308 KIPOK Q568 IMPED |
| Aircraft | A388/J-SADE2E3FGHIJ3J4J5M1RWXY/LB1D1 |
Departure
| Time | 2026-05-05 12:53 |
|---|---|
| Airport | Frankfurt Main Airport (EDDF) |
Arrival
| Time | N/A |
|---|---|
| Airport | Dubai International Airport (OMDB) |
| Time | Latitude | Longitude | Altitude | Speed | Heading |
|---|---|---|---|---|---|
| 2026-05-05 12:00 | 50.03151 | 8.57534 | 361 ft | 0 kts | 205° |
| 2026-05-05 12:41 | 50.03171 | 8.57547 | 370 ft | 4 kts | 205° |
| 2026-05-05 12:41 | 50.03195 | 8.57565 | 368 ft | 4 kts | 205° |
| 2026-05-05 12:41 | 50.03215 | 8.57579 | 366 ft | 4 kts | 219° |
| 2026-05-05 12:42 | 50.03226 | 8.57608 | 368 ft | 4 kts | 279° |
| 2026-05-05 12:42 | 50.03225 | 8.57619 | 368 ft | 4 kts | 295° |
| 2026-05-05 12:42 | 50.03231 | 8.57600 | 368 ft | 0 kts | 295° |
| 2026-05-05 12:44 | 50.03252 | 8.57528 | 366 ft | 15 kts | 295° |
| 2026-05-05 12:44 | 50.03299 | 8.57368 | 364 ft | 17 kts | 294° |
| 2026-05-05 12:45 | 50.03345 | 8.57214 | 362 ft | 14 kts | 294° |
| 2026-05-05 12:45 | 50.03339 | 8.57066 | 362 ft | 14 kts | 249° |
| 2026-05-05 12:45 | 50.03299 | 8.56893 | 364 ft | 20 kts | 250° |
| 2026-05-05 12:45 | 50.03241 | 8.56647 | 360 ft | 29 kts | 249° |
| 2026-05-05 12:46 | 50.03175 | 8.56367 | 360 ft | 26 kts | 250° |
| 2026-05-05 12:46 | 50.03114 | 8.56106 | 360 ft | 25 kts | 249° |
| 2026-05-05 12:46 | 50.03051 | 8.55846 | 352 ft | 26 kts | 249° |
| 2026-05-05 12:46 | 50.02991 | 8.55600 | 357 ft | 23 kts | 249° |
| 2026-05-05 12:47 | 50.02931 | 8.55345 | 357 ft | 26 kts | 250° |
| 2026-05-05 12:47 | 50.02869 | 8.55092 | 356 ft | 26 kts | 249° |
| 2026-05-05 12:47 | 50.02804 | 8.54822 | 357 ft | 27 kts | 249° |
| 2026-05-05 12:47 | 50.02736 | 8.54538 | 349 ft | 29 kts | 250° |
| 2026-05-05 12:48 | 50.02673 | 8.54247 | 349 ft | 27 kts | 255° |
| 2026-05-05 12:48 | 50.02614 | 8.53979 | 337 ft | 26 kts | 250° |
| 2026-05-05 12:48 | 50.02554 | 8.53725 | 336 ft | 24 kts | 250° |
| 2026-05-05 12:48 | 50.02498 | 8.53490 | 351 ft | 22 kts | 250° |
| 2026-05-05 12:49 | 50.02444 | 8.53268 | 347 ft | 22 kts | 249° |
| 2026-05-05 12:49 | 50.02403 | 8.53092 | 338 ft | 16 kts | 256° |
| 2026-05-05 12:49 | 50.02435 | 8.52941 | 336 ft | 16 kts | 304° |
| 2026-05-05 12:49 | 50.02522 | 8.52832 | 338 ft | 16 kts | 348° |
| 2026-05-05 12:50 | 50.02644 | 8.52826 | 341 ft | 20 kts | 359° |
| 2026-05-05 12:50 | 50.02803 | 8.52824 | 336 ft | 24 kts | 360° |
| 2026-05-05 12:50 | 50.02923 | 8.52823 | 336 ft | 27 kts | 360° |
| 2026-05-05 12:50 | 50.03112 | 8.52821 | 339 ft | 27 kts | 0° |
| 2026-05-05 12:51 | 50.03299 | 8.52820 | 336 ft | 25 kts | 359° |
| 2026-05-05 12:51 | 50.03377 | 8.52819 | 336 ft | 12 kts | 359° |
| 2026-05-05 12:51 | 50.03432 | 8.52783 | 336 ft | 7 kts | 288° |
| 2026-05-05 12:51 | 50.03428 | 8.52696 | 338 ft | 9 kts | 248° |
| 2026-05-05 12:52 | 50.03398 | 8.52617 | 335 ft | 10 kts | 219° |
| 2026-05-05 12:52 | 50.03297 | 8.52594 | 337 ft | 36 kts | 179° |
| 2026-05-05 12:52 | 50.02783 | 8.52601 | 335 ft | 108 kts | 179° |
| 2026-05-05 12:52 | 50.01854 | 8.52609 | 336 ft | 154 kts | 179° |
| 2026-05-05 12:53 | 50.00717 | 8.52621 | 551 ft | 167 kts | 181° |
| 2026-05-05 12:53 | 49.99546 | 8.52614 | 966 ft | 171 kts | 182° |
| 2026-05-05 12:53 | 49.98347 | 8.52565 | 1417 ft | 173 kts | 181° |
| 2026-05-05 12:53 | 49.97127 | 8.52850 | 1649 ft | 187 kts | 158° |
| 2026-05-05 12:54 | 49.95356 | 8.56074 | 1927 ft | 216 kts | 117° |
| 2026-05-05 12:54 | 49.94652 | 8.58184 | 2104 ft | 227 kts | 118° |
| 2026-05-05 12:54 | 49.94116 | 8.60483 | 2905 ft | 224 kts | 101° |
| 2026-05-05 12:55 | 49.93974 | 8.62941 | 3558 ft | 233 kts | 93° |
| 2026-05-05 12:55 | 49.93890 | 8.65475 | 4318 ft | 235 kts | 94° |
| 2026-05-05 12:55 | 49.93774 | 8.68032 | 4914 ft | 244 kts | 101° |
| 2026-05-05 12:55 | 49.93091 | 8.70530 | 5293 ft | 261 kts | 130° |
| 2026-05-05 12:56 | 49.91715 | 8.72428 | 5911 ft | 268 kts | 146° |
| 2026-05-05 12:56 | 49.90156 | 8.73969 | 6668 ft | 270 kts | 149° |
| 2026-05-05 12:56 | 49.88654 | 8.75737 | 7409 ft | 273 kts | 136° |
| 2026-05-05 12:56 | 49.87484 | 8.78112 | 8181 ft | 277 kts | 121° |
| 2026-05-05 12:57 | 49.86556 | 8.80695 | 8908 ft | 281 kts | 120° |
| 2026-05-05 12:57 | 49.85607 | 8.83336 | 9680 ft | 283 kts | 121° |
| 2026-05-05 12:57 | 49.84630 | 8.86035 | 10202 ft | 295 kts | 121° |
| 2026-05-05 12:57 | 49.83581 | 8.88919 | 10392 ft | 315 kts | 121° |
| 2026-05-05 12:58 | 49.82476 | 8.91953 | 10597 ft | 332 kts | 121° |
| 2026-05-05 12:58 | 49.81331 | 8.95103 | 11190 ft | 337 kts | 121° |
| 2026-05-05 12:58 | 49.80172 | 8.98288 | 11832 ft | 340 kts | 121° |
| 2026-05-05 12:58 | 49.79023 | 9.01446 | 12436 ft | 343 kts | 121° |
| 2026-05-05 12:59 | 49.77854 | 9.04654 | 13067 ft | 346 kts | 121° |